Air Navigation Services of Czech Republic  
Last data update:  24.11.2020 05:41:26 UTC česká verze
   METEO Page displayed:  24.11.2020 05:42:33 UTC  
help
METAR EDDB 240520Z 20008KT CAVOK 01/M00 Q1026 NOSIG=
METAR EDDC 240520Z 20004KT CAVOK M01/M02 Q1027 NOSIG=
METAR EDDE 240520Z 19008KT 9999 FEW022 M01/M02 Q1026 NOSIG=
METAR EDDF 240520Z 08005KT 4500 BR FEW001 BKN004 05/04 Q1027 TEMPO 2500=
METAR EDDM 240520Z 10009KT 6000 OVC004 04/03 Q1027 TEMPO 4500 BR=
METAR EDDN 240520Z 09003KT 1800 BR BKN002 02/02 Q1028 NOSIG=
METAR EDDP 240520Z 18010KT CAVOK M00/M01 Q1027 NOSIG=
METAR EDDT NIL
METAR COR EDQM 240520Z 16003KT 1200 BR OVC002 00/00 Q1027=
METAR EPBY 240530Z 25011KT 9999 OVC004 03/03 Q1025=
METAR EPGD 240530Z 26014KT 9999 BKN012 BKN016 05/04 Q1021=
METAR EPKK 240530Z 24003KT 9999 BKN034 04/01 Q1029=
METAR EPKT 240530Z 22006KT 9999 OVC026 04/02 Q1028=
METAR EPLL 240530Z 24009KT 9999 BKN007 03/01 Q1027=
METAR EPPO 240530Z 23005KT CAVOK 02/01 Q1026=
METAR EPRZ 240530Z 26008KT 9999 OVC037 04/01 Q1028=
METAR EPWA 240530Z 26011KT 9999 FEW010 BKN017 05/03 Q1026 TEMPO BKN010=
METAR EPWR 240530Z 22006KT CAVOK 02/M00 Q1029=
METAR LHBP 240530Z 35004KT 0250 R13R/0550N R13L/0500N FZFG VV001 M01/M01 Q1031 TEMPO 0100=
METAR LHSM 240515Z AUTO 31005KT 5000 BR NCD M00/M01 Q1031=
METAR LKBC 240530Z AUTO 09005KT 0150 FZFG VV001 M02/M03 Q1029=
METAR LKCV 240530Z 12002KT CAVOK M01/M02 Q1030 NOSIG RMK BLU BLU=
METAR LKKB 240530Z 20008KT CAVOK M02/M03 Q1029 NOSIG RMK BLU BLU=
METAR LKKU NIL
METAR LKKV 240500Z VRB02KT 0800 R29/0900U FZFG OVC001 M03/M03 Q1027 RMK REG QNH 1025=
METAR LKLN 240530Z AUTO VRB01KT 0150 FG VV002 M01/// Q1029=
METAR LKMT 240530Z 22010KT 1500 BR OVC002 01/00 Q1030 TEMPO 1000 BR RMK REG QNH 1025=
METAR LKNA 240530Z VRB01KT 0500 R30/0700 FZFG FEW002 M04/M04 Q1029 NOSIG RMK RED RED=
METAR LKPD 240530Z 00000KT 8000 NSC M03/M03 Q1030 NOSIG RMK BLACK BLU=
METAR LKPJ 240530Z AUTO 25003KT 0000 +SN VV002 M01/M02 Q1031=
METAR LKPR 240530Z 22006KT 8000 NSC M02/M03 Q1028 BECMG 3000 BR SCT002 RMK REG QNH 1025=
METAR LKTB 240530Z 02002KT 0150 R27/0650N FZFG OVC001 M02/M02 Q1031 NOSIG RMK REG QNH 1025=
METAR LKVO NIL
METAR LOWI 240520Z 16002KT CAVOK M03/M04 Q1028 NOSIG=
METAR LOWL 240520Z 03004KT 9999 FEW003 BKN008 01/01 Q1029 TEMPO BKN004=
METAR LOWS 240520Z VRB02KT 9999 FEW003 M03/M03 Q1028 TEMPO 2000 FZBCFG=
METAR LOWW 240520Z 04003KT 0300 R29/0325N FG VV001 00/M00 Q1031 R88/19//95 NOSIG=
METAR LZIB 240530Z 32002KT 0100 R31/0350N R22/0250N FZFG VV001 M03/M03 Q1031 NOSIG=
SPECI LZKZ 240537Z VRB01KT 2200 BR OVC002 M01/M01 Q1030=
METAR LZMC 240500Z VRB02KT 0100 R19/0400N FG VV001 01/00 Q1031=
METAR LZPP 240530Z VRB02KT 1500 BR OVC002 M02/M02 Q1031=
METAR LZSL 240530Z VRB01KT 0100 R36/0350N FZFG OVC001 M03/M03 Q1030=
METAR LZTT 240530Z VRB02KT CAVOK M06/M07 Q1028 NOSIG=
METAR LZZI 240530Z 28003KT 240V320 6000 OVC005 01/00 Q1030=